Time;durP1;ratioP1;P1;durP2;ratioP2;P2;SDS_P1;SDS_P2;PMS_P1;PMS_P2;Temp;Humidity;BMP_temperature;BMP_pressure;BME280_temperature;BME280_humidity;BME280_pressure;Samples;Min_cycle;Max_cycle;Signal;HPM_P1;HPM_P2
2022/06/11 00:00:52;;;;;;;18.45;17.25;;;17.20;99.90;;;;;;5014476;28;20469;-73
2022/06/11 00:03:19;;;;;;;19.85;18.33;;;17.30;99.90;;;;;;5003046;28;20045;-72
2022/06/11 00:05:46;;;;;;;19.23;17.67;;;17.20;99.90;;;;;;5003799;28;20056;-73
2022/06/11 00:08:13;;;;;;;19.95;18.20;;;17.20;99.90;;;;;;5003095;28;20509;-72
2022/06/11 00:10:40;;;;;;;19.52;18.15;;;17.30;99.90;;;;;;5007074;28;20614;-73
2022/06/11 00:13:07;;;;;;;18.52;17.27;;;17.40;99.90;;;;;;5005278;28;20050;-72
2022/06/11 00:15:36;;;;;;;19.48;18.33;;;17.40;99.90;;;;;;5002859;28;20397;-73
2022/06/11 00:18:03;;;;;;;19.48;18.17;;;17.40;99.90;;;;;;5019266;28;20139;-72
2022/06/11 00:20:31;;;;;;;18.85;17.85;;;17.40;99.90;;;;;;5001355;28;20583;-73
2022/06/11 00:22:58;;;;;;;20.10;18.35;;;17.40;99.90;;;;;;4992972;28;20053;-72
2022/06/11 00:25:25;;;;;;;19.10;18.02;;;17.40;99.90;;;;;;5049829;22;21210;-74
2022/06/11 00:27:52;;;;;;;19.55;18.35;;;17.40;99.90;;;;;;5043366;28;20041;-74
2022/06/11 00:30:19;;;;;;;19.20;17.85;;;17.40;99.90;;;;;;5031071;28;20057;-73
2022/06/11 00:32:47;;;;;;;20.80;19.45;;;17.40;99.90;;;;;;5044076;28;20087;-74
2022/06/11 00:35:14;;;;;;;20.00;18.58;;;17.40;99.90;;;;;;5044454;28;20052;-72
2022/06/11 00:37:42;;;;;;;19.30;18.13;;;17.40;99.90;;;;;;5042854;28;20083;-74
2022/06/11 00:40:10;;;;;;;19.73;18.23;;;17.40;99.90;;;;;;5030939;28;20088;-72
2022/06/11 00:42:36;;;;;;;20.83;19.42;;;17.40;99.90;;;;;;5024263;28;20156;-74
2022/06/11 00:45:56;;;;;;;19.73;18.50;;;17.40;99.90;;;;;;5022195;28;20050;-73
2022/06/11 00:48:34;;;;;;;20.42;19.20;;;17.50;99.90;;;;;;4998058;28;20121;-72
2022/06/11 00:51:11;;;;;;;21.05;19.48;;;17.60;99.90;;;;;;5021008;28;20107;-73
2022/06/11 00:53:51;;;;;;;21.48;19.92;;;17.50;99.90;;;;;;5023135;28;20049;-75
2022/06/11 00:56:26;;;;;;;20.40;19.10;;;17.50;99.90;;;;;;5024129;28;20100;-72
2022/06/11 00:58:55;;;;;;;20.48;19.13;;;17.50;99.90;;;;;;5028989;28;20072;-73
2022/06/11 01:01:24;;;;;;;20.77;19.38;;;17.60;99.90;;;;;;5025414;28;20466;-73
2022/06/11 01:03:53;;;;;;;20.48;19.27;;;17.50;99.90;;;;;;5028916;28;20415;-74
2022/06/11 01:06:42;;;;;;;22.13;20.05;;;17.40;99.90;;;;;;5025170;28;20053;-74
2022/06/11 01:09:30;;;;;;;20.17;18.85;;;17.40;99.90;;;;;;5058594;28;20462;-73
2022/06/11 01:12:28;;;;;;;20.45;19.08;;;17.40;99.90;;;;;;5026215;28;20115;-74
2022/06/11 01:15:19;;;;;;;19.42;18.10;;;17.50;99.90;;;;;;5049077;28;20041;-73
2022/06/11 01:17:46;;;;;;;18.75;17.50;;;17.40;99.90;;;;;;5028300;28;20071;-73
2022/06/11 01:20:23;;;;;;;19.00;17.55;;;17.30;99.90;;;;;;5027559;28;20069;-73
2022/06/11 01:23:17;;;;;;;19.63;18.35;;;17.30;99.90;;;;;;5033479;28;20045;-74
2022/06/11 01:25:55;;;;;;;20.13;18.85;;;17.20;99.90;;;;;;5038634;28;20048;-74
2022/06/11 01:28:48;;;;;;;20.23;18.75;;;17.10;99.90;;;;;;5028703;28;20368;-74
2022/06/11 01:31:30;;;;;;;19.98;18.58;;;17.20;99.90;;;;;;5021320;28;20100;-76
2022/06/11 01:34:18;;;;;;;20.90;19.15;;;17.30;99.90;;;;;;5026163;28;20080;-74
2022/06/11 01:36:48;;;;;;;20.17;18.35;;;17.10;99.90;;;;;;5042392;28;20075;-75
2022/06/11 01:39:37;;;;;;;18.75;17.55;;;17.00;99.90;;;;;;5044139;28;20049;-75
2022/06/11 01:42:12;;;;;;;19.60;18.05;;;17.10;99.90;;;;;;5042606;28;20113;-74
2022/06/11 01:44:42;;;;;;;18.48;17.23;;;17.00;99.90;;;;;;5024980;28;20061;-75
2022/06/11 01:47:12;;;;;;;19.05;17.60;;;17.10;99.90;;;;;;5024062;28;20053;-76
2022/06/11 01:49:44;;;;;;;18.88;17.48;;;17.00;99.90;;;;;;5022457;28;20581;-75
2022/06/11 01:52:53;;;;;;;18.75;17.45;;;17.10;99.90;;;;;;5022910;28;20041;-73
2022/06/11 01:55:44;;;;;;;18.95;17.60;;;17.10;99.90;;;;;;4979759;28;20050;-74
2022/06/11 01:58:18;;;;;;;19.10;17.65;;;17.00;99.90;;;;;;5019222;28;20077;-76
2022/06/11 02:01:05;;;;;;;18.53;17.17;;;17.00;99.90;;;;;;5028995;28;20049;-73
2022/06/11 02:03:37;;;;;;;18.58;17.23;;;17.10;99.90;;;;;;5025238;28;20045;-73
2022/06/11 02:06:13;;;;;;;17.77;16.63;;;17.10;99.90;;;;;;5025091;28;20095;-74
2022/06/11 02:08:59;;;;;;;18.70;17.27;;;17.10;99.90;;;;;;5021077;28;20084;-73
2022/06/11 02:11:40;;;;;;;18.05;16.75;;;17.00;99.90;;;;;;5023033;28;20147;-74
2022/06/11 02:14:12;;;;;;;18.30;16.95;;;17.00;99.90;;;;;;5025993;28;20451;-76
2022/06/11 02:16:54;;;;;;;18.02;16.83;;;17.00;99.90;;;;;;5028722;28;20091;-76
2022/06/11 02:19:26;;;;;;;19.23;17.75;;;16.90;99.90;;;;;;5033710;28;20489;-75
2022/06/11 02:22:02;;;;;;;19.58;18.08;;;17.00;99.90;;;;;;5019961;28;20056;-76
2022/06/11 02:24:39;;;;;;;18.38;17.17;;;16.90;99.90;;;;;;5024181;28;20633;-75
2022/06/11 02:27:14;;;;;;;17.85;16.85;;;16.80;99.90;;;;;;5028936;28;20057;-75
2022/06/11 02:29:41;;;;;;;19.67;18.10;;;16.80;99.90;;;;;;5023652;28;20045;-76
2022/06/11 02:32:16;;;;;;;18.27;16.95;;;16.70;99.90;;;;;;5024647;28;20470;-76
2022/06/11 02:34:53;;;;;;;18.30;16.95;;;16.80;99.90;;;;;;5041115;28;20159;-76
2022/06/11 02:37:37;;;;;;;17.60;16.30;;;16.80;99.90;;;;;;5037271;28;20052;-75
2022/06/11 02:40:25;;;;;;;17.92;16.90;;;16.60;99.90;;;;;;5022522;28;20143;-76
2022/06/11 02:42:53;;;;;;;17.98;16.90;;;16.70;99.90;;;;;;5009896;28;20199;-74
2022/06/11 02:45:20;;;;;;;19.27;17.90;;;16.70;99.90;;;;;;5027402;28;20176;-73
2022/06/11 02:47:50;;;;;;;18.83;17.25;;;16.80;99.90;;;;;;5040411;28;20098;-74
2022/06/11 02:50:27;;;;;;;18.60;17.50;;;16.60;99.90;;;;;;5022894;28;20034;-73
2022/06/11 02:52:55;;;;;;;20.27;18.48;;;16.70;99.90;;;;;;5027529;28;20068;-73
2022/06/11 02:55:23;;;;;;;18.95;17.42;;;16.80;99.90;;;;;;5042269;28;20132;-74
2022/06/11 02:57:49;;;;;;;18.05;16.80;;;16.60;99.90;;;;;;5030928;28;20049;-74
2022/06/11 03:00:23;;;;;;;18.20;17.05;;;16.70;99.90;;;;;;5023671;28;20049;-73
2022/06/11 03:02:50;;;;;;;17.83;16.70;;;16.70;99.90;;;;;;5041916;28;20495;-74
2022/06/11 03:05:20;;;;;;;18.98;17.75;;;16.80;99.90;;;;;;5039610;28;20041;-73
2022/06/11 03:07:48;;;;;;;20.58;18.48;;;16.90;99.90;;;;;;5025299;28;20424;-74
2022/06/11 03:10:18;;;;;;;18.73;17.58;;;16.90;99.90;;;;;;5022308;28;20566;-76
2022/06/11 03:12:45;;;;;;;19.90;18.27;;;17.00;99.90;;;;;;5021768;28;20407;-75
2022/06/11 03:15:15;;;;;;;20.17;18.60;;;16.90;99.90;;;;;;5025326;28;20048;-73
2022/06/11 03:17:42;;;;;;;20.27;18.88;;;16.90;99.90;;;;;;5029089;28;20131;-74
2022/06/11 03:20:12;;;;;;;19.95;18.73;;;17.00;99.90;;;;;;5021632;28;20209;-74
2022/06/11 03:22:39;;;;;;;19.25;18.05;;;17.00;99.90;;;;;;5020735;28;20096;-74
2022/06/11 03:25:08;;;;;;;20.08;18.45;;;17.00;99.90;;;;;;5030027;28;20501;-74
2022/06/11 03:27:36;;;;;;;19.48;17.98;;;17.10;99.90;;;;;;5032821;28;20079;-73
2022/06/11 03:30:03;;;;;;;19.65;18.25;;;17.10;99.90;;;;;;5024046;28;20088;-73
2022/06/11 03:32:30;;;;;;;19.35;18.02;;;17.10;99.90;;;;;;5025735;28;20560;-74
2022/06/11 03:34:57;;;;;;;21.42;20.15;;;17.20;99.90;;;;;;5007649;28;20045;-76
2022/06/11 03:37:24;;;;;;;19.83;18.45;;;17.30;99.90;;;;;;5026001;28;20041;-76
2022/06/11 03:39:51;;;;;;;19.80;18.20;;;17.20;99.90;;;;;;5016328;28;20084;-75
2022/06/11 03:42:18;;;;;;;19.58;18.10;;;17.30;99.90;;;;;;5025805;28;20158;-76
2022/06/11 03:44:45;;;;;;;19.90;18.60;;;17.40;99.90;;;;;;5043914;28;20087;-75
2022/06/11 03:47:12;;;;;;;19.42;18.10;;;17.40;99.90;;;;;;5022603;28;20099;-76
2022/06/11 03:49:38;;;;;;;19.27;17.63;;;17.40;99.90;;;;;;5027679;28;20111;-73
2022/06/11 03:52:06;;;;;;;20.48;18.73;;;17.40;99.90;;;;;;5028507;28;20134;-74
2022/06/11 03:54:35;;;;;;;19.20;17.67;;;17.50;99.90;;;;;;5024497;28;20519;-77
2022/06/11 03:57:03;;;;;;;21.52;20.02;;;17.50;99.90;;;;;;5012348;28;20057;-76
2022/06/11 03:59:31;;;;;;;21.63;20.25;;;17.50;99.90;;;;;;5024833;28;20103;-76
2022/06/11 04:01:58;;;;;;;21.58;20.15;;;17.50;99.90;;;;;;5011159;28;20529;-74
2022/06/11 04:04:25;;;;;;;22.52;20.70;;;17.60;99.90;;;;;;5031735;28;20049;-74
2022/06/11 04:06:56;;;;;;;22.25;20.50;;;17.60;99.90;;;;;;5007145;28;20735;-74
2022/06/11 04:09:30;;;;;;;21.25;19.67;;;17.60;99.90;;;;;;5018195;28;20132;-75
2022/06/11 04:11:57;;;;;;;21.60;20.20;;;17.60;99.90;;;;;;5021544;28;20091;-74
2022/06/11 04:14:24;;;;;;;22.88;21.13;;;17.60;99.90;;;;;;5038059;28;20524;-73
2022/06/11 04:16:58;;;;;;;22.83;21.05;;;17.60;99.90;;;;;;5045832;28;20049;-75
2022/06/11 04:19:29;;;;;;;22.75;21.20;;;17.60;99.90;;;;;;5027156;28;20095;-73
2022/06/11 04:21:57;;;;;;;22.95;21.35;;;17.60;99.90;;;;;;5026423;28;20313;-74
2022/06/11 04:24:25;;;;;;;26.95;25.30;;;17.60;99.90;;;;;;5029178;28;20069;-74
2022/06/11 04:26:54;;;;;;;22.25;21.10;;;17.70;99.90;;;;;;5009428;28;20045;-76
2022/06/11 04:29:25;;;;;;;23.13;20.83;;;17.70;99.90;;;;;;5007048;28;20045;-76
2022/06/11 04:31:54;;;;;;;22.00;20.30;;;17.70;99.90;;;;;;5042000;28;20049;-76
2022/06/11 04:34:22;;;;;;;24.02;22.23;;;17.70;99.90;;;;;;5036488;28;20441;-74
2022/06/11 04:36:50;;;;;;;23.40;21.77;;;17.70;99.90;;;;;;5006349;28;20137;-72
2022/06/11 04:39:20;;;;;;;22.20;20.60;;;17.70;99.90;;;;;;5017534;28;20096;-74
2022/06/11 04:41:48;;;;;;;21.88;19.95;;;17.80;99.90;;;;;;5019050;28;20127;-74
2022/06/11 04:44:15;;;;;;;21.27;19.75;;;17.80;99.90;;;;;;5026462;28;20045;-74
2022/06/11 04:46:43;;;;;;;21.88;20.30;;;17.80;99.90;;;;;;5023035;28;20069;-73
2022/06/11 04:49:10;;;;;;;21.65;20.13;;;17.80;99.90;;;;;;5007855;28;20053;-73
2022/06/11 04:51:37;;;;;;;21.27;19.77;;;17.90;99.90;;;;;;5004906;28;20216;-73
2022/06/11 04:54:04;;;;;;;21.10;19.85;;;17.90;99.90;;;;;;4999162;28;20046;-74
2022/06/11 04:56:31;;;;;;;22.17;20.52;;;17.90;99.90;;;;;;5022286;28;20644;-75
2022/06/11 04:58:59;;;;;;;21.83;20.13;;;17.80;99.90;;;;;;5026305;28;20049;-74
2022/06/11 05:01:30;;;;;;;20.80;19.25;;;17.80;99.90;;;;;;5024387;28;20532;-75
2022/06/11 05:03:57;;;;;;;20.73;19.33;;;17.90;99.90;;;;;;5024619;28;20057;-74
2022/06/11 05:06:30;;;;;;;21.45;20.00;;;17.90;99.90;;;;;;5025743;28;20115;-74
2022/06/11 05:08:56;;;;;;;22.30;20.80;;;17.80;99.90;;;;;;5024512;28;20037;-74
2022/06/11 05:11:24;;;;;;;21.63;20.25;;;17.80;99.90;;;;;;5037267;28;20041;-74
2022/06/11 05:13:50;;;;;;;21.80;20.20;;;17.90;99.90;;;;;;5022467;28;20535;-75
2022/06/11 05:16:20;;;;;;;21.75;20.23;;;17.80;99.90;;;;;;5023239;28;20095;-74
2022/06/11 05:18:46;;;;;;;21.73;20.10;;;17.80;99.90;;;;;;5023190;28;20412;-75
2022/06/11 05:21:13;;;;;;;22.27;20.42;;;17.90;99.90;;;;;;5022748;28;20140;-76
2022/06/11 05:23:40;;;;;;;21.48;19.92;;;17.80;99.90;;;;;;5023371;28;20740;-74
2022/06/11 05:26:17;;;;;;;21.67;20.00;;;17.80;99.90;;;;;;5006369;28;20056;-74
2022/06/11 05:28:44;;;;;;;20.98;19.63;;;17.90;99.90;;;;;;5003829;28;20088;-74
2022/06/11 05:31:11;;;;;;;21.50;19.75;;;17.90;99.90;;;;;;5004447;28;20565;-74
2022/06/11 05:33:39;;;;;;;22.40;20.35;;;17.90;99.90;;;;;;5026596;28;20045;-73
2022/06/11 05:36:07;;;;;;;23.20;21.35;;;17.90;99.90;;;;;;5013988;28;20053;-74
2022/06/11 05:38:34;;;;;;;22.05;20.45;;;17.90;99.90;;;;;;5023902;28;20298;-74
2022/06/11 05:41:01;;;;;;;22.00;20.17;;;18.00;99.90;;;;;;5022843;28;20080;-73
2022/06/11 05:43:28;;;;;;;21.48;20.15;;;18.00;99.90;;;;;;5004948;28;20081;-76
2022/06/11 05:46:13;;;;;;;21.77;20.10;;;18.00;99.90;;;;;;5023273;28;20041;-75
2022/06/11 05:48:53;;;;;;;21.65;20.00;;;18.10;99.90;;;;;;5024388;28;20128;-76
2022/06/11 05:51:25;;;;;;;22.13;20.45;;;18.20;99.90;;;;;;5018420;28;20120;-76
2022/06/11 05:53:55;;;;;;;21.85;20.23;;;18.20;99.90;;;;;;5010555;28;20091;-75
2022/06/11 05:56:22;;;;;;;21.70;20.30;;;18.30;99.90;;;;;;5011692;28;20441;-74
2022/06/11 05:58:58;;;;;;;21.55;20.05;;;18.30;99.90;;;;;;5004849;28;20538;-74
2022/06/11 06:01:34;;;;;;;22.42;20.90;;;18.20;99.90;;;;;;5003290;28;20068;-74
2022/06/11 06:04:00;;;;;;;22.23;20.73;;;18.20;99.90;;;;;;5022447;28;20101;-74
2022/06/11 06:06:27;;;;;;;22.92;21.15;;;18.20;99.90;;;;;;5021718;28;20118;-74
2022/06/11 06:08:54;;;;;;;21.98;20.42;;;18.20;99.90;;;;;;5022024;28;20439;-76
2022/06/11 06:11:21;;;;;;;22.85;21.17;;;18.20;99.90;;;;;;5022336;28;20042;-74
2022/06/11 06:13:48;;;;;;;22.15;20.55;;;18.30;99.90;;;;;;5021667;28;20173;-74
2022/06/11 06:16:20;;;;;;;22.67;20.55;;;18.40;99.90;;;;;;5021634;28;20331;-76
2022/06/11 06:18:49;;;;;;;23.02;21.40;;;18.40;99.90;;;;;;5022334;28;20053;-77
2022/06/11 06:21:18;;;;;;;23.42;21.58;;;18.40;99.90;;;;;;5018813;28;20072;-73
2022/06/11 06:23:45;;;;;;;24.27;22.42;;;18.50;99.90;;;;;;4986578;28;20093;-74
2022/06/11 06:26:12;;;;;;;23.17;21.40;;;18.60;99.90;;;;;;5046329;22;20235;-73
2022/06/11 06:28:39;;;;;;;22.83;21.13;;;18.60;99.90;;;;;;5021365;28;20090;-74
2022/06/11 06:31:07;;;;;;;23.38;21.67;;;18.60;99.90;;;;;;5023837;28;20061;-73
2022/06/11 06:33:35;;;;;;;24.08;22.05;;;18.80;99.90;;;;;;5023848;28;20049;-74
2022/06/11 06:36:05;;;;;;;24.80;22.20;;;19.10;99.90;;;;;;5031274;28;20068;-75
2022/06/11 06:38:33;;;;;;;23.58;21.40;;;19.30;99.90;;;;;;5023488;28;20053;-76
2022/06/11 06:41:00;;;;;;;23.95;21.80;;;19.70;99.90;;;;;;5042426;28;20052;-74
2022/06/11 06:43:27;;;;;;;24.15;22.23;;;19.70;99.90;;;;;;5044161;28;20057;-72
2022/06/11 06:45:54;;;;;;;24.30;22.15;;;19.80;99.90;;;;;;4992229;28;20041;-74
2022/06/11 06:48:21;;;;;;;24.50;22.50;;;19.90;99.90;;;;;;5025063;28;20108;-75
2022/06/11 06:50:48;;;;;;;24.40;22.48;;;20.00;99.90;;;;;;5006223;28;20180;-75
2022/06/11 06:53:15;;;;;;;25.10;23.15;;;20.30;99.90;;;;;;5006522;28;20533;-75
2022/06/11 06:55:41;;;;;;;24.48;22.30;;;20.90;99.90;;;;;;5024761;28;20068;-76
2022/06/11 06:58:08;;;;;;;24.27;22.25;;;21.00;99.90;;;;;;5007454;28;20057;-74
2022/06/11 07:00:35;;;;;;;23.48;21.90;;;21.00;99.90;;;;;;5009403;28;20045;-77
2022/06/11 07:03:02;;;;;;;24.73;22.58;;;20.90;99.90;;;;;;5026352;28;20103;-75
2022/06/11 07:05:29;;;;;;;22.52;21.13;;;20.80;99.90;;;;;;5009421;28;20045;-75
2022/06/11 07:07:56;;;;;;;22.25;20.38;;;20.80;99.90;;;;;;4994901;28;20041;-75
2022/06/11 07:10:24;;;;;;;22.25;20.70;;;20.90;99.90;;;;;;5012262;28;20069;-75
2022/06/11 07:12:52;;;;;;;22.45;20.58;;;21.00;99.90;;;;;;5010685;28;20095;-77
2022/06/11 07:15:19;;;;;;;21.30;20.00;;;20.90;99.90;;;;;;4994028;28;20053;-77
2022/06/11 07:17:52;;;;;;;21.75;20.35;;;21.00;99.90;;;;;;5010279;28;20113;-76
2022/06/11 07:20:23;;;;;;;23.73;22.20;;;21.10;99.90;;;;;;5017145;28;20183;-75
2022/06/11 07:22:54;;;;;;;22.85;21.55;;;21.10;99.90;;;;;;5027583;28;20060;-75
2022/06/11 07:25:21;;;;;;;22.20;20.58;;;21.20;99.90;;;;;;5010635;28;20625;-74
2022/06/11 07:27:52;;;;;;;22.10;20.65;;;21.60;99.90;;;;;;5028087;28;20100;-75
2022/06/11 07:30:23;;;;;;;22.20;20.88;;;21.60;99.90;;;;;;4989573;28;20045;-75
2022/06/11 07:32:56;;;;;;;23.77;21.90;;;21.60;99.90;;;;;;5014026;28;20049;-75
2022/06/11 07:35:23;;;;;;;23.25;21.45;;;21.60;99.90;;;;;;5008095;28;20055;-75
2022/06/11 07:37:51;;;;;;;21.00;19.90;;;21.80;99.90;;;;;;5008709;28;20077;-76
2022/06/11 07:40:19;;;;;;;23.10;21.55;;;21.90;99.90;;;;;;5007317;28;20057;-75
2022/06/11 07:42:46;;;;;;;20.65;19.08;;;21.90;99.90;;;;;;5009019;28;20139;-74
2022/06/11 07:45:13;;;;;;;24.13;22.60;;;22.30;99.90;;;;;;5008154;28;20584;-75
2022/06/11 07:47:56;;;;;;;23.58;22.13;;;22.70;99.90;;;;;;5009022;28;20069;-75
2022/06/11 07:50:26;;;;;;;21.35;20.13;;;23.00;99.90;;;;;;5007914;28;20040;-75
2022/06/11 07:52:56;;;;;;;21.35;20.08;;;22.80;99.90;;;;;;5008361;28;20417;-75
2022/06/11 07:55:26;;;;;;;22.65;21.38;;;22.80;99.90;;;;;;5008892;28;20034;-76
2022/06/11 07:57:55;;;;;;;22.10;20.77;;;22.80;99.90;;;;;;5026904;28;20064;-76
2022/06/11 08:00:28;;;;;;;22.48;21.15;;;22.80;99.90;;;;;;5009698;28;20057;-75
2022/06/11 08:02:55;;;;;;;22.48;21.10;;;23.00;99.90;;;;;;5008290;28;20596;-75
2022/06/11 08:05:22;;;;;;;22.95;21.65;;;23.10;99.90;;;;;;5006021;28;20459;-74
2022/06/11 08:07:51;;;;;;;22.60;21.40;;;23.30;99.90;;;;;;5004342;28;20054;-74
2022/06/11 08:10:25;;;;;;;23.15;21.77;;;23.00;99.90;;;;;;5004688;28;20046;-74
2022/06/11 08:12:51;;;;;;;23.90;22.60;;;22.60;99.90;;;;;;5004826;28;20054;-75
2022/06/11 08:15:19;;;;;;;24.02;22.70;;;22.80;99.90;;;;;;5001273;28;20049;-76
2022/06/11 08:17:46;;;;;;;25.40;23.75;;;22.90;99.90;;;;;;4987513;28;20054;-76
2022/06/11 08:20:22;;;;;;;23.98;22.67;;;22.90;99.90;;;;;;5003503;28;20077;-77
2022/06/11 08:22:48;;;;;;;22.88;21.25;;;23.30;99.90;;;;;;5004736;28;20101;-75
2022/06/11 08:25:16;;;;;;;22.85;21.58;;;23.70;99.90;;;;;;5004904;28;20414;-75
2022/06/11 08:27:44;;;;;;;21.80;20.23;;;23.60;99.90;;;;;;5006742;28;20084;-74
2022/06/11 08:30:16;;;;;;;24.50;23.30;;;23.30;99.90;;;;;;5008568;28;20045;-75
2022/06/11 08:32:43;;;;;;;22.15;20.98;;;22.90;99.90;;;;;;5003445;28;20064;-75
2022/06/11 08:35:12;;;;;;;21.13;20.00;;;22.90;99.90;;;;;;5003109;28;20084;-75
2022/06/11 08:37:39;;;;;;;20.48;19.48;;;22.90;99.90;;;;;;5005860;28;20123;-75
2022/06/11 08:40:11;;;;;;;21.58;20.27;;;22.60;99.90;;;;;;5020866;28;20573;-74
2022/06/11 08:42:41;;;;;;;23.40;22.02;;;22.90;99.90;;;;;;5003926;28;20061;-74
2022/06/11 08:45:22;;;;;;;22.15;21.15;;;22.90;99.90;;;;;;5003307;28;20096;-75
2022/06/11 08:47:53;;;;;;;22.75;21.65;;;23.20;99.90;;;;;;5005907;28;20057;-75
2022/06/11 08:50:40;;;;;;;25.02;23.63;;;23.30;99.90;;;;;;5006050;28;20099;-75
2022/06/11 08:53:07;;;;;;;21.85;20.55;;;23.30;99.90;;;;;;5004506;28;20046;-75
2022/06/11 08:55:36;;;;;;;20.77;19.80;;;23.50;99.90;;;;;;5005835;28;20129;-74
2022/06/11 08:58:15;;;;;;;22.55;21.35;;;23.50;99.90;;;;;;5018527;28;20052;-77
2022/06/11 09:00:54;;;;;;;21.13;20.08;;;23.60;99.90;;;;;;5017104;28;20068;-74
2022/06/11 09:03:47;;;;;;;21.63;20.42;;;23.50;99.90;;;;;;5025905;28;20084;-75
2022/06/11 09:07:11;;;;;;;23.60;21.92;;;23.20;99.90;;;;;;5029987;28;20679;-75
2022/06/11 09:09:59;;;;;;;22.77;21.52;;;22.80;99.90;;;;;;4933443;29;20165;-77
2022/06/11 09:13:02;;;;;;;23.77;22.40;;;22.40;99.90;;;;;;5025715;28;20040;-76
2022/06/11 09:15:34;;;;;;;24.63;23.35;;;22.30;99.90;;;;;;5024487;28;20250;-75
2022/06/11 09:18:13;;;;;;;25.23;23.58;;;22.10;99.90;;;;;;5025978;28;20030;-76
2022/06/11 09:20:52;;;;;;;23.55;22.33;;;21.90;99.90;;;;;;5024810;28;20057;-75
2022/06/11 09:23:55;;;;;;;23.85;22.58;;;21.90;99.90;;;;;;5028433;28;20064;-75
2022/06/11 09:26:40;;;;;;;24.27;22.67;;;21.80;99.90;;;;;;4972415;28;20047;-76
2022/06/11 09:29:21;;;;;;;24.20;22.70;;;21.60;99.90;;;;;;5016135;28;20041;-75
2022/06/11 09:32:09;;;;;;;22.15;21.10;;;21.70;99.90;;;;;;4985839;28;20046;-75
2022/06/11 09:34:51;;;;;;;23.45;21.90;;;21.80;99.90;;;;;;5034460;28;20332;-75
2022/06/11 09:37:25;;;;;;;22.83;21.63;;;22.00;99.90;;;;;;5025753;28;20102;-75
2022/06/11 09:40:10;;;;;;;23.67;22.37;;;22.00;99.90;;;;;;5025608;28;20498;-74
2022/06/11 09:42:45;;;;;;;22.67;21.48;;;22.20;99.90;;;;;;5006101;28;20208;-75
2022/06/11 09:45:33;;;;;;;21.40;20.23;;;22.40;99.90;;;;;;5005837;28;20100;-75
2022/06/11 09:48:22;;;;;;;21.70;20.70;;;22.30;99.90;;;;;;5006524;28;20060;-75
2022/06/11 09:50:58;;;;;;;23.10;22.00;;;22.40;99.90;;;;;;5005323;28;20395;-74
2022/06/11 09:53:54;;;;;;;23.52;22.50;;;22.20;99.90;;;;;;5004272;28;20049;-74
2022/06/11 09:56:38;;;;;;;23.33;21.95;;;22.30;99.90;;;;;;5005373;28;20046;-75
2022/06/11 09:59:11;;;;;;;23.60;22.40;;;22.80;99.90;;;;;;5006490;28;20111;-75
2022/06/11 10:01:49;;;;;;;21.27;20.25;;;23.30;99.90;;;;;;5003871;28;20140;-75
2022/06/11 10:04:21;;;;;;;21.98;20.70;;;23.20;99.90;;;;;;5002161;28;20514;-76
2022/06/11 10:06:53;;;;;;;24.48;23.17;;;23.10;99.90;;;;;;5005251;28;20049;-75
2022/06/11 10:09:30;;;;;;;24.08;22.85;;;23.10;99.90;;;;;;5005914;28;20057;-75
2022/06/11 10:12:25;;;;;;;23.00;21.80;;;23.20;99.90;;;;;;5005186;28;20055;-75
2022/06/11 10:15:00;;;;;;;23.23;22.02;;;23.50;99.90;;;;;;5003913;28;20589;-75
2022/06/11 10:17:34;;;;;;;22.55;21.30;;;23.60;99.90;;;;;;5005623;28;20419;-75
2022/06/11 10:20:29;;;;;;;21.90;20.88;;;23.60;99.90;;;;;;5022570;28;20051;-75
2022/06/11 10:23:16;;;;;;;22.73;21.50;;;23.70;99.90;;;;;;5022616;28;20107;-74
2022/06/11 10:26:08;;;;;;;21.63;20.52;;;23.90;99.90;;;;;;4994690;28;20050;-76
2022/06/11 10:28:38;;;;;;;22.80;21.75;;;23.80;99.90;;;;;;5022237;28;20045;-75
2022/06/11 10:31:12;;;;;;;21.52;20.50;;;24.00;99.90;;;;;;5004911;28;20486;-75
2022/06/11 10:33:55;;;;;;;21.42;20.42;;;24.20;99.90;;;;;;5006170;28;20053;-75
2022/06/11 10:36:36;;;;;;;22.30;20.75;;;24.70;99.90;;;;;;5003505;28;20046;-75
2022/06/11 10:39:11;;;;;;;22.92;21.83;;;24.80;99.90;;;;;;5019286;28;20058;-76
2022/06/11 10:41:54;;;;;;;21.35;20.35;;;24.70;99.90;;;;;;5009613;28;20053;-75
2022/06/11 10:44:27;;;;;;;21.65;20.65;;;24.60;99.90;;;;;;5002558;28;20123;-76
2022/06/11 10:46:57;;;;;;;20.42;19.25;;;24.20;99.90;;;;;;5005429;28;20045;-75
2022/06/11 10:49:28;;;;;;;22.00;20.90;;;24.10;99.90;;;;;;5007440;28;20679;-75
2022/06/11 10:52:21;;;;;;;20.10;19.17;;;24.00;99.90;;;;;;4990664;28;20701;-76
2022/06/11 10:54:48;;;;;;;27.33;26.02;;;23.50;99.90;;;;;;4998356;28;20076;-75
2022/06/11 10:57:25;;;;;;;24.90;23.67;;;23.40;99.90;;;;;;4989145;28;20344;-74
2022/06/11 11:00:04;;;;;;;22.73;21.42;;;23.90;99.90;;;;;;5013689;28;20116;-76
2022/06/11 11:02:37;;;;;;;21.02;20.00;;;24.40;99.90;;;;;;5004606;28;20096;-76
2022/06/11 11:05:13;;;;;;;22.67;21.40;;;24.50;99.90;;;;;;4988486;28;20084;-75
2022/06/11 11:08:02;;;;;;;20.73;19.70;;;24.40;99.90;;;;;;5022913;28;20045;-76
2022/06/11 11:10:35;;;;;;;20.15;18.98;;;24.40;99.90;;;;;;5024416;28;20772;-75
2022/06/11 11:13:19;;;;;;;20.00;18.95;;;24.30;99.90;;;;;;5030652;28;20100;-75
2022/06/11 11:15:56;;;;;;;24.73;23.52;;;24.30;99.90;;;;;;4999631;28;20100;-74
2022/06/11 11:18:31;;;;;;;22.65;21.55;;;24.30;99.90;;;;;;5008260;28;20077;-75
2022/06/11 11:21:02;;;;;;;22.17;21.13;;;24.30;99.90;;;;;;5023973;28;20088;-76
2022/06/11 11:23:39;;;;;;;21.58;20.50;;;24.50;99.90;;;;;;5005993;28;20504;-76
2022/06/11 11:26:18;;;;;;;23.35;22.20;;;24.60;99.90;;;;;;5021889;28;20092;-76
2022/06/11 11:28:53;;;;;;;23.38;22.23;;;24.60;99.90;;;;;;5008828;28;20137;-77
2022/06/11 11:31:27;;;;;;;22.88;21.50;;;24.90;99.90;;;;;;5007765;28;20417;-76
2022/06/11 11:34:03;;;;;;;24.27;23.08;;;25.30;99.90;;;;;;5023154;28;20489;-75
2022/06/11 11:36:31;;;;;;;23.40;22.20;;;24.90;99.90;;;;;;5040699;28;20045;-76
2022/06/11 11:39:13;;;;;;;24.65;23.38;;;25.10;99.90;;;;;;5046129;28;20048;-75
2022/06/11 11:41:59;;;;;;;23.40;22.17;;;25.40;99.90;;;;;;5045205;28;20052;-76
2022/06/11 11:44:26;;;;;;;19.98;18.98;;;25.90;99.90;;;;;;5027100;28;20049;-75
2022/06/11 11:47:01;;;;;;;21.80;20.38;;;25.60;99.90;;;;;;5013515;28;20076;-76
2022/06/11 11:49:31;;;;;;;20.23;19.00;;;25.20;99.90;;;;;;5025661;28;20435;-75
2022/06/11 11:52:05;;;;;;;20.10;19.20;;;24.80;99.90;;;;;;5017877;28;20096;-76
2022/06/11 11:54:34;;;;;;;20.85;19.63;;;24.90;99.90;;;;;;5007395;28;20068;-76
2022/06/11 11:57:11;;;;;;;21.02;20.02;;;24.80;99.90;;;;;;5025170;28;20123;-75
2022/06/11 11:59:41;;;;;;;22.00;20.90;;;24.80;99.90;;;;;;5008384;28;20521;-76
2022/06/11 12:02:25;;;;;;;23.33;22.10;;;24.70;99.90;;;;;;5024640;28;20045;-76
2022/06/11 12:05:27;;;;;;;25.00;23.77;;;24.90;99.90;;;;;;5008403;28;20112;-77
2022/06/11 12:07:57;;;;;;;26.10;24.90;;;25.40;99.90;;;;;;5027503;28;20125;-76
2022/06/11 12:10:46;;;;;;;21.48;20.48;;;25.80;99.90;;;;;;4990982;28;20049;-76
2022/06/11 12:13:24;;;;;;;23.30;22.02;;;26.00;99.90;;;;;;5024967;28;20719;-76
2022/06/11 12:15:58;;;;;;;22.63;21.50;;;26.40;99.90;;;;;;5007148;28;20433;-76
2022/06/11 12:18:46;;;;;;;22.73;21.70;;;26.10;99.90;;;;;;5026362;28;20111;-75
2022/06/11 12:21:17;;;;;;;24.23;22.95;;;26.00;99.90;;;;;;5006685;28;20099;-76
2022/06/11 12:23:49;;;;;;;26.88;25.42;;;25.60;99.90;;;;;;5019663;28;20107;-76
2022/06/11 12:26:27;;;;;;;25.95;24.65;;;25.70;99.90;;;;;;5006512;28;20088;-78
2022/06/11 12:29:25;;;;;;;21.08;20.17;;;25.80;99.90;;;;;;5025285;28;20041;-76
2022/06/11 12:31:54;;;;;;;22.08;20.95;;;25.90;99.90;;;;;;5012054;28;20053;-76
2022/06/11 12:34:26;;;;;;;22.83;21.63;;;25.50;99.90;;;;;;4994577;28;20204;-76
2022/06/11 12:36:56;;;;;;;26.85;25.63;;;25.20;99.90;;;;;;4970374;28;20088;-76
2022/06/11 12:39:29;;;;;;;22.15;21.15;;;25.40;99.90;;;;;;4996710;28;20053;-76
2022/06/11 12:42:04;;;;;;;23.35;22.15;;;25.90;99.90;;;;;;5025085;28;20099;-76
2022/06/11 12:44:41;;;;;;;23.67;22.48;;;25.70;99.90;;;;;;5018939;28;20042;-77
2022/06/11 12:47:17;;;;;;;22.20;21.00;;;25.70;99.90;;;;;;5007102;28;20498;-76
2022/06/11 12:50:10;;;;;;;22.13;21.00;;;25.40;99.90;;;;;;5007669;28;20056;-77
2022/06/11 12:53:01;;;;;;;22.23;21.13;;;25.20;99.90;;;;;;5005781;28;20053;-75
2022/06/11 12:55:46;;;;;;;22.67;21.27;;;25.40;99.90;;;;;;5011178;28;20041;-76
2022/06/11 12:58:25;;;;;;;23.27;22.08;;;25.40;99.90;;;;;;5006804;28;20053;-77
2022/06/11 13:01:06;;;;;;;23.17;21.90;;;25.00;99.90;;;;;;5001947;28;20049;-76